Jork Valiant — CQEY — position and weather

sailwx.info

Track history (hours):
 
Tides and Currents Weather Stations Pressure Air Temp Water Temp Dewpoint Dewpoint Depression Visibility Wind Speed Wind Dir Waves Ship Positions

Jork Valiant

Last reported at 2017-Oct-21 18:52 UTC. Time now 2017-Oct-22 17:52 UTC.
Position N 36°02' W 005°24'.

Length 159 m; draft 8.4 m.

Type: Cargo ship. MMSI: 255805702.

Date/timePositionNaut miles runAvg speedWind from/ knotsBaromVisibWave heightAir tempDewpointWater temp
2017-Oct-21 18:52N 36°02' W 005°24'6 1.9
2017-Oct-21 15:39N 36°08' W 005°22'5 0.5
2017-Oct-21 06:31N 36°05' W 005°18'113.0
2017-Oct-21 06:28N 36°05' W 005°17'21412.2
2017-Oct-20 12:50N 37°13' W 001°04'513.2
2017-Oct-20 12:26N 37°16' W 000°59'613.7
2017-Oct-20 12:00N 37°20' W 000°53'714.0
2017-Oct-20 11:30N 37°25' W 000°47'714.2
2017-Oct-20 11:00N 37°30' W 000°40'713.8
2017-Oct-20 10:30N 37°34' W 000°34'713.8
2017-Oct-20 10:00N 37°40' W 000°29'813.9
2017-Oct-20 09:27N 37°46' W 000°24'713.7
2017-Oct-20 08:56N 37°52' W 000°19'713.5
2017-Oct-20 08:26N 37°58' W 000°14'  
2017-Oct-16 10:36N 37°44' W 000°21'1 8.7
2017-Oct-16 10:30N 37°44' W 000°22'4 8.6
2017-Oct-16 10:00N 37°40' W 000°24'4 8.5
2017-Oct-16 09:30N 37°37' W 000°28'4 8.5
2017-Oct-16 09:00N 37°33' W 000°31'4 8.4
2017-Oct-16 08:30N 37°30' W 000°35'4 8.5
2017-Oct-16 08:00N 37°28' W 000°39'4 8.6
2017-Oct-16 07:30N 37°25' W 000°43'4 8.6
2017-Oct-16 07:00N 37°22' W 000°47'713.5
2017-Oct-16 06:31N 37°17' W 000°53'21913.2
2017-Oct-15 13:58N 36°00' W 005°08'714.1
2017-Oct-15 13:30N 35°59' W 005°16'713.9
2017-Oct-15 13:01N 35°58' W 005°25'5613.3
2017-Oct-15 08:49N 35°30' W 006°24'413.4
2017-Oct-15 08:30N 35°27' W 006°28'613.1
2017-Oct-15 08:00N 35°23' W 006°34'612.9
2017-Oct-15 07:31N 35°18' W 006°39'713.1
2017-Oct-15 07:00N 35°14' W 006°45'612.9
2017-Oct-15 06:30N 35°09' W 006°51'613.0
2017-Oct-15 06:00N 35°05' W 006°56'713.2
2017-Oct-15 05:30N 34°60' W 007°02'713.7
2017-Oct-15 05:00N 34°55' W 007°08'714.0
2017-Oct-15 04:30N 34°50' W 007°14'713.6
2017-Oct-15 04:00N 34°46' W 007°20'713.2
2017-Oct-15 03:31N 34°41' W 007°26'2511.8
2017-Oct-15 01:23N 34°24' W 007°47'714.1
2017-Oct-15 00:54N 34°19' W 007°53'613.9
2017-Oct-15 00:29N 34°15' W 007°59'714.0
2017-Oct-14 23:59N 34°10' W 008°04'40314.0
2017-Oct-13 19:06N 28°55' W 013°00'114.2
2017-Oct-13 19:00N 28°54' W 013°01'714.1
2017-Oct-13 18:30N 28°48' W 013°06'814.5
2017-Oct-13 17:55N 28°41' W 013°11'614.4
2017-Oct-13 17:30N 28°36' W 013°15'714.3
2017-Oct-13 17:00N 28°31' W 013°20'714.2
2017-Oct-13 16:29N 28°24' W 013°24'814.8
2017-Oct-13 15:55N 28°18' W 013°30'1814.9
2017-Oct-13 14:42N 28°03' W 013°42'314.7
2017-Oct-13 14:30N 28°01' W 013°44'714.8
2017-Oct-13 14:00N 27°54' W 013°48'815.1
2017-Oct-13 13:30N 27°48' W 013°53'815.2
2017-Oct-13 13:00N 27°42' W 013°58'815.1
2017-Oct-13 12:30N 27°36' W 014°03'815.1
2017-Oct-13 12:00N 27°29' W 014°08'815.0
2017-Oct-13 11:30N 27°23' W 014°12'714.8
2017-Oct-13 11:00N 27°17' W 014°17'714.5
2017-Oct-13 10:30N 27°11' W 014°22'714.2
2017-Oct-13 10:00N 27°05' W 014°26'714.2
2017-Oct-13 09:30N 26°59' W 014°31'2014.3
2017-Oct-13 08:05N 26°42' W 014°43'214.2
2017-Oct-13 07:58N 26°41' W 014°44'1214.1
2017-Oct-13 07:07N 26°31' W 014°52'214.3
2017-Oct-13 06:59N 26°29' W 014°53'815.6
2017-Oct-13 06:29N 26°23' W 014°57'916.7
2017-Oct-13 05:58N 26°16' W 015°03'5413.4
2017-Oct-13 01:57N 25°31' W 015°36'712.4
2017-Oct-13 01:26N 25°25' W 015°40'  
Track history (hours):
 
Tides and Currents Weather Stations Pressure Air Temp Water Temp Dewpoint Dewpoint Depression Visibility Wind Speed Wind Dir Waves Ship Positions

Jork Valiant

Last reported at 2017-Oct-21 18:52 UTC. Time now 2017-Oct-22 17:52 UTC.
Position N 36°02' W 005°24'.

Length 159 m; draft 8.4 m.

Type: Cargo ship. MMSI: 255805702.

Date/timePositionNaut miles runAvg speedWind from/ knotsBaromVisibWave heightAir tempDewpointWater temp
2017-Oct-21 18:52N 36°02' W 005°24'6 1.9
2017-Oct-21 15:39N 36°08' W 005°22'5 0.5
2017-Oct-21 06:31N 36°05' W 005°18'113.0
2017-Oct-21 06:28N 36°05' W 005°17'21412.2
2017-Oct-20 12:50N 37°13' W 001°04'513.2
2017-Oct-20 12:26N 37°16' W 000°59'613.7
2017-Oct-20 12:00N 37°20' W 000°53'714.0
2017-Oct-20 11:30N 37°25' W 000°47'714.2
2017-Oct-20 11:00N 37°30' W 000°40'713.8
2017-Oct-20 10:30N 37°34' W 000°34'713.8
2017-Oct-20 10:00N 37°40' W 000°29'813.9
2017-Oct-20 09:27N 37°46' W 000°24'713.7
2017-Oct-20 08:56N 37°52' W 000°19'713.5
2017-Oct-20 08:26N 37°58' W 000°14'  
2017-Oct-16 10:36N 37°44' W 000°21'1 8.7
2017-Oct-16 10:30N 37°44' W 000°22'4 8.6
2017-Oct-16 10:00N 37°40' W 000°24'4 8.5
2017-Oct-16 09:30N 37°37' W 000°28'4 8.5
2017-Oct-16 09:00N 37°33' W 000°31'4 8.4
2017-Oct-16 08:30N 37°30' W 000°35'4 8.5
2017-Oct-16 08:00N 37°28' W 000°39'4 8.6
2017-Oct-16 07:30N 37°25' W 000°43'4 8.6
2017-Oct-16 07:00N 37°22' W 000°47'713.5
2017-Oct-16 06:31N 37°17' W 000°53'21913.2
2017-Oct-15 13:58N 36°00' W 005°08'714.1
2017-Oct-15 13:30N 35°59' W 005°16'713.9
2017-Oct-15 13:01N 35°58' W 005°25'5613.3
2017-Oct-15 08:49N 35°30' W 006°24'413.4
2017-Oct-15 08:30N 35°27' W 006°28'613.1
2017-Oct-15 08:00N 35°23' W 006°34'612.9
2017-Oct-15 07:31N 35°18' W 006°39'713.1
2017-Oct-15 07:00N 35°14' W 006°45'612.9
2017-Oct-15 06:30N 35°09' W 006°51'613.0
2017-Oct-15 06:00N 35°05' W 006°56'713.2
2017-Oct-15 05:30N 34°60' W 007°02'713.7
2017-Oct-15 05:00N 34°55' W 007°08'714.0
2017-Oct-15 04:30N 34°50' W 007°14'713.6
2017-Oct-15 04:00N 34°46' W 007°20'713.2
2017-Oct-15 03:31N 34°41' W 007°26'2511.8
2017-Oct-15 01:23N 34°24' W 007°47'714.1
2017-Oct-15 00:54N 34°19' W 007°53'613.9
2017-Oct-15 00:29N 34°15' W 007°59'714.0
2017-Oct-14 23:59N 34°10' W 008°04'40314.0
2017-Oct-13 19:06N 28°55' W 013°00'114.2
2017-Oct-13 19:00N 28°54' W 013°01'714.1
2017-Oct-13 18:30N 28°48' W 013°06'814.5
2017-Oct-13 17:55N 28°41' W 013°11'614.4
2017-Oct-13 17:30N 28°36' W 013°15'714.3
2017-Oct-13 17:00N 28°31' W 013°20'714.2
2017-Oct-13 16:29N 28°24' W 013°24'814.8
2017-Oct-13 15:55N 28°18' W 013°30'1814.9
2017-Oct-13 14:42N 28°03' W 013°42'314.7
2017-Oct-13 14:30N 28°01' W 013°44'714.8
2017-Oct-13 14:00N 27°54' W 013°48'815.1
2017-Oct-13 13:30N 27°48' W 013°53'815.2
2017-Oct-13 13:00N 27°42' W 013°58'815.1
2017-Oct-13 12:30N 27°36' W 014°03'815.1
2017-Oct-13 12:00N 27°29' W 014°08'815.0
2017-Oct-13 11:30N 27°23' W 014°12'714.8
2017-Oct-13 11:00N 27°17' W 014°17'714.5
2017-Oct-13 10:30N 27°11' W 014°22'714.2
2017-Oct-13 10:00N 27°05' W 014°26'714.2
2017-Oct-13 09:30N 26°59' W 014°31'2014.3
2017-Oct-13 08:05N 26°42' W 014°43'214.2
2017-Oct-13 07:58N 26°41' W 014°44'1214.1
2017-Oct-13 07:07N 26°31' W 014°52'214.3
2017-Oct-13 06:59N 26°29' W 014°53'815.6
2017-Oct-13 06:29N 26°23' W 014°57'916.7
2017-Oct-13 05:58N 26°16' W 015°03'5413.4
2017-Oct-13 01:57N 25°31' W 015°36'712.4
2017-Oct-13 01:26N 25°25' W 015°40'  

Dump ship's entire track history